createdAt,value
2022-09-07T00:01:05.868Z,3.00
2022-09-07T00:03:33.012Z,2.80
2022-09-07T00:06:00.234Z,3.30
2022-09-07T00:08:27.800Z,3.37
2022-09-07T00:10:56.101Z,3.33
2022-09-07T00:13:24.145Z,2.93
2022-09-07T00:15:51.679Z,3.10
2022-09-07T00:18:18.975Z,3.30
2022-09-07T00:20:46.147Z,3.20
2022-09-07T00:23:13.532Z,3.00
2022-09-07T00:25:41.005Z,3.40
2022-09-07T00:28:08.785Z,3.00
2022-09-07T00:30:35.934Z,3.30
2022-09-07T00:33:03.079Z,3.10
2022-09-07T00:35:30.208Z,3.00
2022-09-07T00:37:57.361Z,3.30
2022-09-07T00:40:24.531Z,3.20
2022-09-07T00:42:51.685Z,3.30
2022-09-07T00:45:20.588Z,3.10
2022-09-07T00:47:53.906Z,3.07
2022-09-07T00:50:24.017Z,2.97
2022-09-07T00:52:53.911Z,3.00
2022-09-07T00:55:21.824Z,3.33
2022-09-07T00:57:51.261Z,3.40
2022-09-07T01:00:18.981Z,3.60
2022-09-07T01:02:48.010Z,4.00
2022-09-07T01:05:23.374Z,3.47
2022-09-07T01:07:50.797Z,3.30
2022-09-07T01:10:18.724Z,3.30
2022-09-07T01:12:45.911Z,3.30
2022-09-07T01:15:13.110Z,3.13
2022-09-07T01:17:43.036Z,3.00
2022-09-07T01:20:10.425Z,3.47
2022-09-07T01:22:56.131Z,3.40
2022-09-07T01:25:32.368Z,3.33
2022-09-07T01:28:21.361Z,2.97
2022-09-07T01:30:51.649Z,3.27
2022-09-07T01:33:32.098Z,3.80
2022-09-07T01:36:05.200Z,3.40
2022-09-07T01:38:36.760Z,3.20
2022-09-07T01:41:39.312Z,3.47
2022-09-07T01:44:09.176Z,3.80
2022-09-07T01:46:40.594Z,3.70
2022-09-07T01:49:19.377Z,3.53
2022-09-07T01:51:48.740Z,3.60
2022-09-07T01:54:19.528Z,3.73
2022-09-07T01:56:48.187Z,3.70
2022-09-07T01:59:20.891Z,3.40
2022-09-07T02:01:52.693Z,3.70
2022-09-07T02:04:25.471Z,3.60
2022-09-07T02:07:01.554Z,3.40
2022-09-07T02:09:34.038Z,3.77
2022-09-07T02:12:03.512Z,3.63
2022-09-07T02:14:32.973Z,3.97
2022-09-07T02:17:09.300Z,3.57
2022-09-07T02:19:38.803Z,3.60
2022-09-07T02:22:08.939Z,3.87
2022-09-07T02:24:38.643Z,3.80
2022-09-07T02:27:12.163Z,3.60
2022-09-07T02:29:39.511Z,3.90
2022-09-07T02:32:06.838Z,3.70
2022-09-07T02:34:34.044Z,3.77
2022-09-07T02:37:02.379Z,3.90
2022-09-07T02:39:29.561Z,4.10
2022-09-07T02:41:56.764Z,4.00
2022-09-07T02:44:28.741Z,3.70
2022-09-07T02:46:58.673Z,3.87
2022-09-07T02:49:25.806Z,4.20
2022-09-07T02:52:10.653Z,3.53
2022-09-07T02:54:43.688Z,3.87
2022-09-07T02:57:16.731Z,3.63
2022-09-07T02:59:46.909Z,3.73
2022-09-07T03:02:14.135Z,3.80
2022-09-07T03:04:41.272Z,3.80
2022-09-07T03:07:14.605Z,3.90
2022-09-07T03:09:47.389Z,3.37
2022-09-07T03:12:14.636Z,3.93
2022-09-07T03:14:42.584Z,3.50
2022-09-07T03:17:09.752Z,3.90
2022-09-07T03:19:37.036Z,3.67
2022-09-07T03:22:04.757Z,3.80
2022-09-07T03:24:31.953Z,4.10
2022-09-07T03:26:59.320Z,3.70
2022-09-07T03:29:26.505Z,3.87
2022-09-07T03:31:53.688Z,4.00
2022-09-07T03:34:20.840Z,3.87
2022-09-07T03:36:47.977Z,3.97
2022-09-07T03:39:15.131Z,4.43
2022-09-07T03:41:42.345Z,4.50
2022-09-07T03:44:09.828Z,4.43
2022-09-07T03:46:37.067Z,4.57
2022-09-07T03:49:04.292Z,4.33
2022-09-07T03:51:31.529Z,4.57
2022-09-07T03:54:00.374Z,4.93
2022-09-07T03:56:27.531Z,4.87
2022-09-07T03:58:55.581Z,4.37
2022-09-07T04:01:24.371Z,4.33
2022-09-07T04:03:51.838Z,4.77
2022-09-07T04:06:19.665Z,4.40
2022-09-07T04:08:46.871Z,4.60
2022-09-07T04:11:16.655Z,4.17
2022-09-07T04:13:44.217Z,4.07
2022-09-07T04:16:18.861Z,4.67
2022-09-07T04:18:46.055Z,4.70
2022-09-07T04:21:13.278Z,4.60
2022-09-07T04:23:41.040Z,4.40
2022-09-07T04:26:13.536Z,4.80
2022-09-07T04:28:40.697Z,4.60
2022-09-07T04:31:07.963Z,4.60
2022-09-07T04:33:35.130Z,4.93
2022-09-07T04:36:02.547Z,5.20
2022-09-07T04:38:30.288Z,5.03
2022-09-07T04:41:06.697Z,4.90
2022-09-07T04:43:33.860Z,5.40
2022-09-07T04:46:04.914Z,5.13
2022-09-07T04:48:32.199Z,5.17
2022-09-07T04:51:09.614Z,5.50
2022-09-07T04:53:37.761Z,5.20
2022-09-07T04:56:05.571Z,5.17
2022-09-07T04:58:32.870Z,5.40
2022-09-07T05:01:03.795Z,5.33
2022-09-07T05:03:32.329Z,5.10
2022-09-07T05:06:02.830Z,5.07
2022-09-07T05:08:30.296Z,5.30
2022-09-07T05:10:57.711Z,5.53
2022-09-07T05:13:25.551Z,5.50
2022-09-07T05:15:52.691Z,4.80
2022-09-07T05:18:20.240Z,4.97
2022-09-07T05:20:47.366Z,4.80
2022-09-07T05:23:14.860Z,5.20
2022-09-07T05:25:45.553Z,5.57
2022-09-07T05:28:16.007Z,5.13
2022-09-07T05:36:21.377Z,5.00
2022-09-07T05:38:48.573Z,5.00
2022-09-07T05:41:21.130Z,4.83
2022-09-07T05:46:36.217Z,4.57
2022-09-07T05:49:03.664Z,4.00
2022-09-07T05:51:30.863Z,4.60
2022-09-07T05:53:58.628Z,4.23
2022-09-07T05:56:25.861Z,4.60
2022-09-07T05:58:53.010Z,4.87
2022-09-07T06:01:20.471Z,4.70
2022-09-07T06:03:47.625Z,4.20
2022-09-07T06:06:16.393Z,4.17
2022-09-07T06:08:47.853Z,4.20
2022-09-07T06:11:16.802Z,4.07
2022-09-07T06:13:44.039Z,3.88
2022-09-07T06:16:12.550Z,4.18
2022-09-07T06:18:40.782Z,3.88
2022-09-07T06:21:15.758Z,4.00
2022-09-07T06:23:43.576Z,4.00
2022-09-07T06:26:11.272Z,4.53
2022-09-07T06:28:39.754Z,3.58
2022-09-07T06:31:08.184Z,3.53
2022-09-07T06:33:35.847Z,3.40
2022-09-07T06:36:04.877Z,3.45
2022-09-07T06:38:33.039Z,3.08
2022-09-07T06:44:13.604Z,3.05
2022-09-07T06:49:27.959Z,3.20
2022-09-07T06:51:55.639Z,3.03
2022-09-07T06:57:10.041Z,3.13
2022-09-07T06:59:37.788Z,3.33
2022-09-07T07:02:05.475Z,2.90
2022-09-07T07:04:37.801Z,3.40
2022-09-07T07:07:10.082Z,3.30
2022-09-07T07:09:37.675Z,3.22
2022-09-07T07:12:04.917Z,3.40
2022-09-07T07:14:35.547Z,3.40
2022-09-07T07:17:03.620Z,3.38
2022-09-07T07:19:30.850Z,2.97
2022-09-07T07:24:45.153Z,2.72
2022-09-07T07:27:12.303Z,2.95
2022-09-07T07:29:39.451Z,2.80
2022-09-07T07:32:06.627Z,2.63
2022-09-07T07:34:33.825Z,2.90
2022-09-07T07:37:00.964Z,2.25
2022-09-07T07:42:15.134Z,2.47
2022-09-07T07:44:42.230Z,2.50
2022-09-07T07:47:09.327Z,3.13
2022-09-07T07:49:36.502Z,2.58
2022-09-07T07:54:53.240Z,2.10
2022-09-07T07:57:20.410Z,2.42
2022-09-07T07:59:47.502Z,1.90
2022-09-07T08:02:15.848Z,1.90
2022-09-07T08:04:43.156Z,1.50
2022-09-07T08:07:11.886Z,1.63
2022-09-07T08:09:48.565Z,1.70
2022-09-07T08:12:20.088Z,1.98
2022-09-07T08:14:48.306Z,2.08
2022-09-07T08:17:16.643Z,2.05
2022-09-07T08:19:44.030Z,1.85
2022-09-07T08:22:12.429Z,1.60
2022-09-07T08:24:39.569Z,1.55
2022-09-07T08:27:07.201Z,1.50
2022-09-07T08:29:35.492Z,1.80
2022-09-07T08:32:03.731Z,1.90
2022-09-07T08:34:30.861Z,1.77
2022-09-07T08:36:58.104Z,1.88
2022-09-07T08:39:25.228Z,1.85
2022-09-07T08:41:52.334Z,2.20
2022-09-07T08:44:19.357Z,1.83
2022-09-07T08:46:50.225Z,1.90
2022-09-07T08:49:20.714Z,2.20
2022-09-07T08:51:51.465Z,1.90
2022-09-07T08:54:18.662Z,2.05
2022-09-07T08:59:43.660Z,1.88
2022-09-07T09:02:34.017Z,2.03
2022-09-07T09:05:18.705Z,2.40
2022-09-07T09:07:53.407Z,2.00
2022-09-07T09:10:23.458Z,1.73
2022-09-07T09:12:59.421Z,1.90
2022-09-07T09:15:30.921Z,1.98
2022-09-07T09:18:14.463Z,2.30
2022-09-07T09:20:51.441Z,1.77
2022-09-07T09:23:19.440Z,2.25
2022-09-07T09:25:51.995Z,2.03
2022-09-07T09:28:19.385Z,2.00
2022-09-07T09:30:48.106Z,1.80
2022-09-07T09:33:18.285Z,1.77
2022-09-07T09:35:46.699Z,1.90
2022-09-07T09:38:31.907Z,1.83
2022-09-07T09:41:03.647Z,2.30
2022-09-07T09:43:36.040Z,2.17
2022-09-07T09:46:18.953Z,1.90
2022-09-07T09:48:52.757Z,2.08
2022-09-07T09:54:16.984Z,2.17
2022-09-07T09:56:45.455Z,1.88
2022-09-07T10:05:29.124Z,2.20
2022-09-07T10:07:56.849Z,2.40
2022-09-07T10:10:24.046Z,2.30
2022-09-07T10:12:53.288Z,2.13
2022-09-07T10:15:40.400Z,2.20
2022-09-07T10:18:15.658Z,2.20
2022-09-07T10:20:42.744Z,1.70
2022-09-07T10:23:20.048Z,2.10
2022-09-07T10:25:47.636Z,1.80
2022-09-07T10:28:18.908Z,1.83
2022-09-07T10:30:46.132Z,2.17
2022-09-07T10:33:36.384Z,1.92
2022-09-07T10:36:12.982Z,1.88
2022-09-07T10:38:46.654Z,2.10
2022-09-07T10:41:14.286Z,1.95
2022-09-07T10:43:44.567Z,1.55
2022-09-07T10:49:27.477Z,1.65
2022-09-07T10:52:09.937Z,1.60
2022-09-07T10:54:39.808Z,1.65
2022-09-07T10:57:09.698Z,2.00
2022-09-07T11:05:50.803Z,1.50
2022-09-07T11:09:14.833Z,2.05
2022-09-07T11:12:00.716Z,1.90
2022-09-07T11:14:14.288Z,1.63
2022-09-07T11:16:52.012Z,1.60
2022-09-07T11:19:35.615Z,2.10
2022-09-07T11:22:03.141Z,1.75
2022-09-07T11:24:47.434Z,1.80
2022-09-07T11:27:17.282Z,1.75
2022-09-07T11:29:48.014Z,1.70
2022-09-07T11:32:21.483Z,1.98
2022-09-07T11:34:52.125Z,1.70
2022-09-07T11:37:22.743Z,1.58
2022-09-07T11:39:59.231Z,1.90
2022-09-07T11:42:47.013Z,1.80
2022-09-07T11:45:23.739Z,1.70
2022-09-07T11:47:55.109Z,1.60
2022-09-07T11:50:23.319Z,1.70
2022-09-07T11:52:53.944Z,1.35
2022-09-07T11:55:25.393Z,1.50
2022-09-07T11:58:07.573Z,1.85
2022-09-07T12:00:50.314Z,1.40
2022-09-07T12:03:36.001Z,1.55
2022-09-07T12:06:13.954Z,1.50
2022-09-07T12:09:00.029Z,1.73
2022-09-07T12:11:27.492Z,1.60
2022-09-07T12:14:13.295Z,1.75
2022-09-07T12:16:59.094Z,1.63
2022-09-07T12:19:27.655Z,1.95
2022-09-07T12:21:54.716Z,1.65
2022-09-07T12:24:40.888Z,1.73
2022-09-07T12:27:12.483Z,1.80
2022-09-07T12:29:45.198Z,1.58
2022-09-07T12:34:59.923Z,1.55
2022-09-07T12:37:26.962Z,1.60
2022-09-07T12:40:17.361Z,1.60
2022-09-07T12:42:44.760Z,1.27
2022-09-07T12:45:47.256Z,1.40
2022-09-07T12:48:17.135Z,1.60
2022-09-07T12:51:03.171Z,1.77
2022-09-07T12:53:48.815Z,1.52
2022-09-07T12:56:20.534Z,1.50
2022-09-07T12:58:59.514Z,1.35
2022-09-07T13:01:26.667Z,1.45
2022-09-07T13:03:53.836Z,1.40
2022-09-07T13:07:01.724Z,1.60
2022-09-07T13:09:26.602Z,1.80
2022-09-07T13:11:53.828Z,1.70
2022-09-07T13:14:23.391Z,1.65
2022-09-07T13:19:46.874Z,1.60
2022-09-07T13:22:31.958Z,1.50
2022-09-07T13:25:00.110Z,1.65
2022-09-07T13:27:44.959Z,1.55
2022-09-07T13:30:24.260Z,1.60
2022-09-07T13:35:39.162Z,1.65
2022-09-07T13:38:06.345Z,1.67
2022-09-07T13:40:39.599Z,1.60
2022-09-07T13:43:13.192Z,1.58
2022-09-07T13:45:49.251Z,1.50
2022-09-07T13:48:25.286Z,1.50
2022-09-07T13:51:08.292Z,1.50
2022-09-07T13:53:38.075Z,1.98
2022-09-07T13:56:05.278Z,1.60
2022-09-07T13:58:40.290Z,1.40
2022-09-07T14:01:19.418Z,1.50
2022-09-07T14:03:57.141Z,1.60
2022-09-07T14:06:25.552Z,1.50
2022-09-07T14:08:54.019Z,1.52
2022-09-07T14:11:47.777Z,1.50
2022-09-07T14:14:22.536Z,1.20
2022-09-07T14:17:02.057Z,1.70
2022-09-07T14:19:41.228Z,1.50
2022-09-07T14:22:17.274Z,1.52
2022-09-07T14:24:49.350Z,1.40
2022-09-07T14:27:22.763Z,1.60
2022-09-07T14:29:50.213Z,1.50
2022-09-07T14:32:22.997Z,1.45
2022-09-07T14:34:50.577Z,1.45
2022-09-07T14:37:18.441Z,1.40
2022-09-07T14:39:46.756Z,1.73
2022-09-07T14:42:16.019Z,1.50
2022-09-07T14:44:43.243Z,1.50
2022-09-07T14:47:24.009Z,1.70
2022-09-07T14:49:52.655Z,1.50
2022-09-07T14:52:22.494Z,1.55
2022-09-07T14:54:52.658Z,1.60
2022-09-07T14:57:19.727Z,1.50
2022-09-07T14:59:48.027Z,1.48
2022-09-07T15:02:15.109Z,1.27
2022-09-07T15:04:42.253Z,1.60
2022-09-07T15:07:28.834Z,2.00
2022-09-07T15:09:56.024Z,1.67
2022-09-07T15:12:38.218Z,1.58
2022-09-07T15:15:32.457Z,1.45
2022-09-07T15:18:07.547Z,1.42
2022-09-07T15:20:45.540Z,1.40
2022-09-07T15:23:14.019Z,1.33
2022-09-07T15:25:44.342Z,1.45
2022-09-07T15:34:20.107Z,1.15
2022-09-07T15:36:48.838Z,1.40
2022-09-07T15:39:27.496Z,1.42
2022-09-07T15:41:54.841Z,1.40
2022-09-07T15:44:26.084Z,1.45
2022-09-07T15:49:47.653Z,1.48
2022-09-07T15:52:17.321Z,1.52
2022-09-07T15:54:44.466Z,1.50
2022-09-07T15:59:58.822Z,1.70
2022-09-07T16:05:13.387Z,1.80
2022-09-07T16:10:31.068Z,1.65
2022-09-07T16:13:03.083Z,1.65
2022-09-07T16:15:45.172Z,1.60
2022-09-07T16:18:16.588Z,1.55
2022-09-07T16:20:44.336Z,1.50
2022-09-07T16:23:14.007Z,1.40
2022-09-07T16:25:43.285Z,1.80
2022-09-07T16:28:11.037Z,1.60
2022-09-07T16:30:41.587Z,1.55
2022-09-07T16:33:08.876Z,1.60
2022-09-07T16:35:36.075Z,1.92
2022-09-07T16:40:51.123Z,1.70
2022-09-07T16:43:18.236Z,1.52
2022-09-07T16:48:33.791Z,1.90
2022-09-07T16:51:02.643Z,1.70
2022-09-07T16:53:31.073Z,1.73
2022-09-07T16:56:24.652Z,1.50
2022-09-07T16:58:53.429Z,1.80
2022-09-07T17:01:22.012Z,1.42
2022-09-07T17:03:49.727Z,1.50
2022-09-07T17:06:17.495Z,1.73
2022-09-07T17:08:44.980Z,1.70
2022-09-07T17:11:13.702Z,1.83
2022-09-07T17:13:41.515Z,1.65
2022-09-07T17:16:09.972Z,1.55
2022-09-07T17:21:24.699Z,1.40
2022-09-07T17:23:55.690Z,1.42
2022-09-07T17:26:26.713Z,1.70
2022-09-07T17:28:55.501Z,1.80
2022-09-07T17:34:13.168Z,1.60
2022-09-07T17:36:40.360Z,1.92
2022-09-07T17:39:16.744Z,1.80
2022-09-07T17:41:44.595Z,1.55
2022-09-07T17:44:11.696Z,1.75
2022-09-07T17:46:38.968Z,1.42
2022-09-07T17:49:08.038Z,1.45
2022-09-07T17:51:36.289Z,1.73
2022-09-07T17:54:09.533Z,1.50
2022-09-07T17:56:37.880Z,1.48
2022-09-07T18:01:54.059Z,1.30
2022-09-07T18:04:21.661Z,1.30
2022-09-07T18:06:49.067Z,1.45
2022-09-07T18:09:16.435Z,1.65
2022-09-07T18:11:48.227Z,4.55
2022-09-07T18:14:16.542Z,15.18
2022-09-07T18:16:44.871Z,9.85
2022-09-07T18:19:12.528Z,3.97
2022-09-07T18:21:41.973Z,1.70
2022-09-07T18:24:13.571Z,1.67
2022-09-07T18:26:41.229Z,1.25
2022-09-07T18:29:19.239Z,1.40
2022-09-07T18:31:55.557Z,1.40
2022-09-07T18:34:23.112Z,1.30
2022-09-07T18:36:50.234Z,1.38
2022-09-07T18:39:17.396Z,1.40
2022-09-07T18:41:44.449Z,1.23
2022-09-07T18:46:58.679Z,1.27
2022-09-07T18:49:25.782Z,1.27
2022-09-07T18:54:41.304Z,1.40
2022-09-07T18:57:08.859Z,1.38
2022-09-07T18:59:36.129Z,1.35
2022-09-07T19:02:05.810Z,1.27
2022-09-07T19:07:26.060Z,1.40
2022-09-07T19:09:56.095Z,1.10
2022-09-07T19:12:24.283Z,1.38
2022-09-07T19:14:51.706Z,1.60
2022-09-07T19:17:18.856Z,1.00
2022-09-07T19:19:45.964Z,1.40
2022-09-07T19:22:13.062Z,1.70
2022-09-07T19:24:40.157Z,1.30
2022-09-07T19:27:07.295Z,1.42
2022-09-07T19:29:34.425Z,1.52
2022-09-07T19:32:04.494Z,1.20
2022-09-07T19:34:31.742Z,1.25
2022-09-07T19:36:59.170Z,1.55
2022-09-07T19:39:26.278Z,1.20
2022-09-07T19:41:53.581Z,1.35
2022-09-07T19:44:20.755Z,1.40
2022-09-07T19:46:48.231Z,1.20
2022-09-07T19:49:15.352Z,1.30
2022-09-07T19:51:42.773Z,1.50
2022-09-07T19:54:10.674Z,1.63
2022-09-07T19:56:38.629Z,1.40
2022-09-07T19:59:06.042Z,1.40
2022-09-07T20:01:33.924Z,1.27
2022-09-07T20:04:03.312Z,1.40
2022-09-07T20:06:32.744Z,1.33
2022-09-07T20:09:01.323Z,1.20
2022-09-07T20:11:28.981Z,1.13
2022-09-07T20:13:59.824Z,1.20
2022-09-07T20:16:31.163Z,1.55
2022-09-07T20:18:59.250Z,1.10
2022-09-07T20:21:27.047Z,1.30
2022-09-07T20:23:54.209Z,1.30
2022-09-07T20:26:22.422Z,1.27
2022-09-07T20:29:10.963Z,1.40
2022-09-07T20:31:44.172Z,1.30
2022-09-07T20:34:11.670Z,1.10
2022-09-07T20:36:38.890Z,1.30
2022-09-07T20:39:06.348Z,1.30
2022-09-07T20:41:34.450Z,1.70
2022-09-07T20:44:02.799Z,1.48
2022-09-07T20:46:30.567Z,1.60
2022-09-07T20:48:58.119Z,1.60
2022-09-07T20:51:25.667Z,1.70
2022-09-07T20:53:52.802Z,1.67
2022-09-07T20:56:21.398Z,1.73
2022-09-07T20:58:49.311Z,1.48
2022-09-07T21:01:18.184Z,1.85
2022-09-07T21:03:49.193Z,1.70
2022-09-07T21:06:16.703Z,1.60
2022-09-07T21:08:44.626Z,1.50
2022-09-07T21:11:13.244Z,1.65
2022-09-07T21:13:40.360Z,1.50
2022-09-07T21:16:09.027Z,1.55
2022-09-07T21:18:36.559Z,1.40
2022-09-07T21:21:19.322Z,1.45
2022-09-07T21:23:47.462Z,1.33
2022-09-07T21:26:14.650Z,1.60
2022-09-07T21:28:41.772Z,1.55
2022-09-07T21:31:09.610Z,1.48
2022-09-07T21:33:37.717Z,1.70
2022-09-07T21:36:05.465Z,1.80
2022-09-07T21:38:32.662Z,1.52
2022-09-07T21:40:59.836Z,1.58
2022-09-07T21:43:27.015Z,1.73
2022-09-07T21:45:54.131Z,1.55
2022-09-07T21:48:21.233Z,1.38
2022-09-07T21:50:48.380Z,1.40
2022-09-07T21:53:15.432Z,1.50
2022-09-07T21:55:42.807Z,1.50
2022-09-07T21:58:09.915Z,1.73
2022-09-07T22:00:38.824Z,1.70
2022-09-07T22:03:06.329Z,1.60
2022-09-07T22:05:36.495Z,1.60
2022-09-07T22:08:03.888Z,1.50
2022-09-07T22:10:32.730Z,1.70
2022-09-07T22:12:59.806Z,1.63
2022-09-07T22:15:26.878Z,1.42
2022-09-07T22:17:54.194Z,1.58
2022-09-07T22:20:21.500Z,1.60
2022-09-07T22:22:48.660Z,1.60
2022-09-07T22:25:15.838Z,1.98
2022-09-07T22:27:42.898Z,1.40
2022-09-07T22:30:11.433Z,1.60
2022-09-07T22:32:38.489Z,1.90
2022-09-07T22:35:05.802Z,1.67
2022-09-07T22:37:32.896Z,1.80
2022-09-07T22:40:00.027Z,1.80
2022-09-07T22:42:27.213Z,1.52
2022-09-07T22:44:55.160Z,1.77
2022-09-07T22:47:22.258Z,1.70
2022-09-07T22:49:49.349Z,1.70
2022-09-07T22:52:16.417Z,2.00
2022-09-07T22:54:43.593Z,1.98
2022-09-07T22:57:10.764Z,2.03
2022-09-07T22:59:37.848Z,1.90
2022-09-07T23:02:05.423Z,1.90
2022-09-07T23:04:32.611Z,2.25
2022-09-07T23:06:59.735Z,1.80
2022-09-07T23:09:26.906Z,1.90
2022-09-07T23:11:54.006Z,2.30
2022-09-07T23:14:22.292Z,1.90
2022-09-07T23:16:49.742Z,1.90
2022-09-07T23:19:17.771Z,1.80
2022-09-07T23:21:44.892Z,1.98
2022-09-07T23:24:13.244Z,1.90
2022-09-07T23:26:40.405Z,1.95
2022-09-07T23:29:07.505Z,1.60
2022-09-07T23:31:36.878Z,1.80
2022-09-07T23:34:04.193Z,1.70
2022-09-07T23:36:31.339Z,1.70
2022-09-07T23:38:59.223Z,2.00
2022-09-07T23:41:26.572Z,1.90
2022-09-07T23:43:54.167Z,1.58
2022-09-07T23:46:21.544Z,2.00
2022-09-07T23:48:48.736Z,2.17
2022-09-07T23:51:18.871Z,1.95
2022-09-07T23:53:50.075Z,2.00
2022-09-07T23:56:17.251Z,1.98
2022-09-07T23:58:44.363Z,1.90
